Time;durP1;ratioP1;P1;durP2;ratioP2;P2;SDS_P1;SDS_P2;PMS_P1;PMS_P2;Temp;Humidity;BMP_temperature;BMP_pressure;BME280_temperature;BME280_humidity;BME280_pressure;Samples;Min_cycle;Max_cycle;Signal;HPM_P1;HPM_P2
2022/01/12 00:00:06;;;;;;;6.72;6.03;;;;;;;-1.34;79.77;96941.16;5048392;28;20016;-61
2022/01/12 00:02:32;;;;;;;14.60;6.95;;;;;;;-1.43;79.29;96937.06;5043867;28;20025;-61
2022/01/12 00:04:57;;;;;;;9.68;6.32;;;;;;;-1.44;80.16;96940.53;5045009;28;20535;-61
2022/01/12 00:07:23;;;;;;;8.50;6.38;;;;;;;-1.42;80.33;96933.59;5047018;28;20028;-61
2022/01/12 00:09:49;;;;;;;7.03;6.32;;;;;;;-1.44;80.19;96943.13;5044444;28;20029;-61
2022/01/12 00:12:14;;;;;;;6.88;6.18;;;;;;;-1.46;79.97;96950.88;5045281;28;20028;-61
2022/01/12 00:14:40;;;;;;;7.07;6.00;;;;;;;-1.35;79.04;96947.22;5048127;28;20029;-61
2022/01/12 00:17:05;;;;;;;6.75;6.05;;;;;;;-1.25;79.04;96943.50;5045384;28;20049;-61
2022/01/12 00:19:30;;;;;;;7.80;6.75;;;;;;;-1.37;78.98;96949.81;5042728;28;20028;-61
2022/01/12 00:21:56;;;;;;;12.63;7.70;;;;;;;-1.44;79.06;96945.69;5044667;28;20543;-62
2022/01/12 00:24:27;;;;;;;7.35;6.05;;;;;;;-1.24;78.62;96939.19;5042199;28;20459;-61
2022/01/12 00:43:05;;;;;;;8.77;5.40;;;;;;;-1.23;76.95;96944.31;5043232;28;20114;-61
2022/01/12 00:45:32;;;;;;;5.95;5.38;;;;;;;-1.41;77.27;96935.28;5042623;28;20061;-61
2022/01/12 00:47:58;;;;;;;6.93;5.05;;;;;;;-1.34;77.37;96941.16;5043634;28;20025;-61
2022/01/12 00:50:23;;;;;;;7.88;5.63;;;;;;;-1.49;77.34;96932.06;5042251;28;20022;-61
2022/01/12 00:52:48;;;;;;;5.78;5.28;;;;;;;-1.51;77.56;96934.66;5045685;28;20531;-61
2022/01/12 00:55:14;;;;;;;6.97;5.97;;;;;;;-1.54;76.74;96927.00;5042490;28;20112;-61
2022/01/12 00:57:40;;;;;;;15.10;6.95;;;;;;;-1.53;78.06;96931.28;5045907;28;20404;-61
2022/01/12 01:00:07;;;;;;;8.38;6.00;;;;;;;-1.52;77.88;96940.72;5042313;28;20500;-61
2022/01/12 01:02:33;;;;;;;5.72;5.10;;;;;;;-1.52;77.81;96937.31;5049324;28;20531;-61
2022/01/12 01:05:00;;;;;;;6.75;6.07;;;;;;;-1.48;77.75;96944.91;5053452;28;20152;-61
2022/01/12 01:07:26;;;;;;;5.53;5.03;;;;;;;-1.52;77.74;96935.56;5042863;28;20024;-61
2022/01/12 01:10:06;;;;;;;8.00;6.47;;;;;;;-1.58;77.87;96940.88;5045523;28;20033;-61
2022/01/12 01:12:35;;;;;;;7.07;6.15;;;;;;;-1.60;77.91;96943.47;5042351;28;20021;-61
2022/01/12 01:15:08;;;;;;;10.05;6.78;;;;;;;-1.59;78.37;96939.19;5045003;28;20025;-61
2022/01/12 01:25:34;;;;;;;8.18;5.82;;;;;;;-1.62;80.04;96954.75;5043760;28;20047;-60
2022/01/12 01:28:00;;;;;;;5.88;5.45;;;;;;;-1.61;78.79;96948.69;5044363;28;20028;-61
2022/01/12 01:30:27;;;;;;;6.40;5.70;;;;;;;-1.62;78.82;96941.84;5043957;28;20023;-61
2022/01/12 01:32:53;;;;;;;7.68;6.53;;;;;;;-1.63;79.03;96938.38;5043171;28;20034;-60
2022/01/12 01:35:19;;;;;;;6.93;6.30;;;;;;;-1.67;79.32;96941.94;5043297;28;20044;-61
2022/01/12 01:37:44;;;;;;;6.07;5.53;;;;;;;-1.66;79.06;96951.38;5046550;28;20026;-60
2022/01/12 01:40:11;;;;;;;5.32;4.93;;;;;;;-1.52;78.64;96948.47;5038975;28;20025;-61
2022/01/12 01:53:30;;;;;;;6.95;6.00;;;;;;;-1.67;78.04;96952.25;5042883;28;20024;-60
2022/01/12 01:55:55;;;;;;;7.18;6.13;;;;;;;-1.66;78.28;96958.25;5045073;28;20021;-60
2022/01/12 01:58:21;;;;;;;8.23;5.80;;;;;;;-1.64;78.43;96953.94;5043327;28;20021;-61
2022/01/12 02:00:47;;;;;;;5.47;4.97;;;;;;;-1.64;78.67;96951.34;5044809;28;20104;-61
2022/01/12 02:03:12;;;;;;;6.72;5.00;;;;;;;-1.65;78.11;96957.41;5030270;28;20025;-61
2022/01/12 02:05:39;;;;;;;4.85;4.45;;;;;;;-1.71;78.06;96966.13;5043794;28;20585;-61
2022/01/12 02:08:05;;;;;;;6.10;5.60;;;;;;;-1.55;77.82;96966.63;5047475;28;20025;-60
2022/01/12 02:10:30;;;;;;;8.30;6.18;;;;;;;-1.60;77.58;96960.72;5049852;28;20035;-60
2022/01/12 02:12:56;;;;;;;5.93;5.40;;;;;;;-1.63;78.11;96955.63;5046876;28;20035;-60
2022/01/12 02:15:23;;;;;;;7.38;6.70;;;;;;;-1.69;78.06;96966.09;5032486;28;20032;-61
2022/01/12 02:40:15;;;;;;;7.90;6.82;;;;;;;-2.04;78.61;96940.19;5045320;28;20527;-61
2022/01/12 02:42:44;;;;;;;6.95;6.10;;;;;;;-2.07;79.23;96941.13;5047760;28;20013;-61
2022/01/12 02:50:47;;;;;;;7.60;6.90;;;;;;;-2.00;79.85;96939.22;5040657;28;20088;-60
2022/01/12 02:55:59;;;;;;;8.13;7.38;;;;;;;-2.08;79.26;96930.81;5045097;28;20129;-61
2022/01/12 02:58:24;;;;;;;7.45;6.65;;;;;;;-2.15;79.88;96930.09;5048969;28;20032;-60
2022/01/12 03:03:41;;;;;;;12.15;8.20;;;;;;;-2.21;80.28;96943.13;5041318;28;20028;-60
2022/01/12 03:06:08;;;;;;;9.18;7.47;;;;;;;-2.14;79.88;96934.38;5051024;28;20072;-60
2022/01/12 03:08:37;;;;;;;10.18;7.80;;;;;;;-2.12;79.71;96932.59;5042906;28;20064;-60
2022/01/12 03:11:11;;;;;;;7.30;6.70;;;;;;;-2.13;79.59;96930.91;5046562;28;20493;-61
2022/01/12 03:13:37;;;;;;;8.40;7.55;;;;;;;-2.07;79.50;96940.25;5047206;28;20024;-60
2022/01/12 03:16:12;;;;;;;6.55;5.95;;;;;;;-1.87;78.22;96937.25;5048216;28;20048;-60
2022/01/12 03:18:37;;;;;;;7.67;6.73;;;;;;;-1.95;78.70;96937.41;5044547;28;20500;-60
2022/01/12 03:21:03;;;;;;;8.85;7.22;;;;;;;-2.04;79.90;96935.03;5038670;28;20311;-61
2022/01/12 03:23:28;;;;;;;7.28;6.57;;;;;;;-2.08;79.98;96930.81;5048987;28;20025;-61
2022/01/12 03:25:54;;;;;;;8.35;7.50;;;;;;;-2.16;78.95;96928.41;5047611;28;20037;-61
2022/01/12 03:28:20;;;;;;;6.90;6.30;;;;;;;-2.19;78.29;96933.63;5044447;28;20464;-61
2022/01/12 03:30:58;;;;;;;7.75;6.97;;;;;;;-2.20;78.72;96932.78;5044456;28;20032;-61
2022/01/12 03:36:23;;;;;;;6.90;6.22;;;;;;;-2.16;77.73;96944.75;5043698;28;20039;-61
2022/01/12 03:38:47;;;;;;;7.72;6.95;;;;;;;-2.16;78.79;96946.47;5044506;28;20493;-60
2022/01/12 03:41:12;;;;;;;7.22;6.45;;;;;;;-2.11;78.65;96943.78;5040945;28;20036;-61
2022/01/12 03:43:37;;;;;;;6.18;5.63;;;;;;;-2.17;78.71;96942.19;5042472;28;20412;-61
2022/01/12 03:46:03;;;;;;;6.80;6.22;;;;;;;-2.15;79.31;96948.16;5043022;28;20036;-62
2022/01/12 03:48:29;;;;;;;7.03;6.43;;;;;;;-1.90;79.30;96945.91;5040661;28;20060;-62
2022/01/12 03:50:56;;;;;;;9.15;7.28;;;;;;;-1.92;79.03;96950.25;5043453;28;20029;-62
2022/01/12 03:53:22;;;;;;;8.00;7.30;;;;;;;-2.07;79.25;96953.16;5040329;28;21122;-61
2022/01/12 03:55:47;;;;;;;9.77;8.88;;;;;;;-2.16;81.07;96952.47;5044867;28;21011;-61
2022/01/12 03:58:13;;;;;;;11.50;9.65;;;;;;;-2.21;82.18;96966.34;5038392;28;20024;-61
2022/01/12 04:00:38;;;;;;;12.68;11.45;;;;;;;-2.28;82.95;96963.06;5043939;28;20029;-62
2022/01/12 04:03:06;;;;;;;11.77;10.57;;;;;;;-2.32;83.12;96972.59;5043649;28;20030;-61
2022/01/12 04:08:20;;;;;;;12.82;9.65;;;;;;;-2.38;83.95;96979.63;5040816;28;20469;-62
2022/01/12 04:10:51;;;;;;;10.00;9.02;;;;;;;-2.41;83.06;96972.78;5031080;28;20395;-61
2022/01/12 04:13:18;;;;;;;10.43;9.23;;;;;;;-2.42;83.12;96981.41;5045292;28;20108;-62
2022/01/12 04:15:46;;;;;;;11.77;10.60;;;;;;;-2.44;83.72;96983.16;5041379;28;20041;-59
2022/01/12 04:18:11;;;;;;;11.85;10.52;;;;;;;-2.40;83.70;96974.47;5041488;28;20107;-62
2022/01/12 04:20:44;;;;;;;19.13;11.50;;;;;;;-2.41;84.77;96985.66;5037604;28;20476;-61
2022/01/12 04:23:18;;;;;;;14.77;11.02;;;;;;;-2.47;84.67;96984.06;5045096;28;20036;-61
2022/01/12 04:25:48;;;;;;;12.35;11.25;;;;;;;-2.42;85.36;96981.41;5042164;28;20033;-61
2022/01/12 04:28:15;;;;;;;10.77;9.68;;;;;;;-2.46;84.48;96977.19;5041205;28;20111;-62
2022/01/12 04:30:40;;;;;;;11.27;9.93;;;;;;;-2.49;84.62;96970.34;5048261;28;20025;-62
2022/01/12 04:33:06;;;;;;;12.40;11.15;;;;;;;-2.45;84.66;96976.28;5043269;28;20071;-61
2022/01/12 04:35:39;;;;;;;11.88;9.82;;;;;;;-2.45;84.67;96978.88;5042893;28;20502;-60
2022/01/12 04:38:05;;;;;;;10.13;9.00;;;;;;;-2.43;83.84;96973.66;5044325;28;20029;-60
2022/01/12 04:40:31;;;;;;;9.55;8.65;;;;;;;-2.38;82.14;96977.88;5038765;28;20036;-60
2022/01/12 04:42:57;;;;;;;10.15;8.18;;;;;;;-2.35;81.69;96984.69;5044976;28;20063;-60
2022/01/12 04:50:29;;;;;;;8.60;7.70;;;;;;;-2.38;79.92;96977.03;5039530;28;20031;-60
2022/01/12 04:52:55;;;;;;;6.97;6.38;;;;;;;-2.37;79.53;96971.81;5039693;28;20135;-60
2022/01/12 04:55:21;;;;;;;7.32;6.38;;;;;;;-2.34;79.93;96973.50;5043042;28;20608;-59
2022/01/12 04:57:47;;;;;;;6.50;5.90;;;;;;;-2.27;79.86;96984.56;5037862;28;20519;-61
2022/01/12 05:00:16;;;;;;;7.38;6.57;;;;;;;-2.35;79.76;96988.13;5046807;28;20027;-60
2022/01/12 05:08:33;;;;;;;7.28;6.68;;;;;;;-2.29;79.70;96996.63;5044329;28;20032;-60
2022/01/12 05:13:47;;;;;;;7.35;6.63;;;;;;;-2.24;78.88;97010.28;5045709;28;20051;-60
2022/01/12 05:16:13;;;;;;;6.45;5.85;;;;;;;-2.29;78.83;97012.94;5039764;28;20726;-60
2022/01/12 05:18:41;;;;;;;5.85;5.40;;;;;;;-2.28;79.38;97008.66;5040815;28;20056;-60
2022/01/12 05:21:07;;;;;;;5.82;5.30;;;;;;;-2.23;78.97;97017.16;5039027;28;20493;-60
2022/01/12 05:23:33;;;;;;;5.97;5.07;;;;;;;-2.06;78.64;97009.91;5042192;28;20500;-60
2022/01/12 05:25:59;;;;;;;6.57;5.97;;;;;;;-2.10;78.39;97022.91;5042221;28;20055;-60
2022/01/12 05:28:26;;;;;;;6.50;5.82;;;;;;;-2.20;78.72;97019.66;5043104;28;20084;-60
2022/01/12 05:30:52;;;;;;;5.95;5.40;;;;;;;-2.13;78.09;97033.28;5037378;28;20032;-60
2022/01/12 05:33:19;;;;;;;6.57;6.07;;;;;;;-2.17;77.63;97027.34;5041885;28;20111;-60
2022/01/12 05:35:45;;;;;;;6.20;5.70;;;;;;;-2.18;78.24;97034.25;5038603;28;20057;-60
2022/01/12 05:38:13;;;;;;;7.65;6.95;;;;;;;-2.19;77.49;97031.69;5038335;28;20032;-60
2022/01/12 05:40:41;;;;;;;6.13;5.65;;;;;;;-2.26;77.48;97030.94;5042849;28;20029;-60
2022/01/12 05:43:07;;;;;;;6.70;6.13;;;;;;;-2.27;77.71;97031.00;5050747;28;20024;-60
2022/01/12 05:45:33;;;;;;;6.57;5.97;;;;;;;-2.28;77.55;97029.28;5050010;28;20020;-60
2022/01/12 05:50:27;;;;;;;8.32;7.53;;;;;;;-2.28;77.30;97043.03;5047470;28;20025;-60
2022/01/12 05:52:53;;;;;;;7.68;6.70;;;;;;;-2.33;77.99;97040.53;5045756;28;20040;-60
2022/01/12 05:55:19;;;;;;;6.15;5.65;;;;;;;-2.31;78.39;97045.69;5049688;28;20021;-60
2022/01/12 05:57:45;;;;;;;7.05;6.43;;;;;;;-2.18;77.38;97051.44;5042868;28;20152;-61
2022/01/12 06:00:13;;;;;;;8.77;7.45;;;;;;;-2.08;77.35;97047.81;5042293;28;20524;-60
2022/01/12 06:02:39;;;;;;;6.60;6.00;;;;;;;-2.12;77.14;97045.31;5046179;28;20026;-60
2022/01/12 06:05:05;;;;;;;5.70;5.28;;;;;;;-2.19;77.45;97045.44;5048525;28;20032;-61
2022/01/12 06:07:31;;;;;;;6.97;6.38;;;;;;;-2.21;78.00;97047.22;5046711;28;20025;-61
2022/01/12 06:09:56;;;;;;;6.45;5.93;;;;;;;-2.21;77.26;97047.22;5024387;28;20556;-61
2022/01/12 06:12:21;;;;;;;7.18;6.47;;;;;;;-2.21;77.03;97054.09;5031966;28;20112;-60
2022/01/12 06:14:47;;;;;;;5.60;5.10;;;;;;;-2.24;77.30;97060.16;5043593;28;20378;-60
2022/01/12 06:17:12;;;;;;;6.35;5.78;;;;;;;-2.20;76.39;97064.41;5041724;28;20457;-61
2022/01/12 06:19:39;;;;;;;10.00;7.28;;;;;;;-2.25;76.41;97060.19;5046418;28;20025;-60
2022/01/12 06:22:05;;;;;;;7.25;6.55;;;;;;;-2.27;77.06;97056.78;5040004;28;20028;-60
2022/01/12 06:24:31;;;;;;;6.50;5.90;;;;;;;-2.27;77.02;97059.38;5040073;28;20623;-61
2022/01/12 06:26:59;;;;;;;6.20;5.50;;;;;;;-2.27;77.23;97067.94;5044137;28;20100;-61
2022/01/12 06:32:08;;;;;;;6.53;5.97;;;;;;;-2.35;76.78;97073.25;5051638;28;20028;-60
2022/01/12 06:34:34;;;;;;;6.75;6.15;;;;;;;-2.32;76.36;97070.66;5049684;28;20021;-61
2022/01/12 06:37:00;;;;;;;6.57;5.97;;;;;;;-2.31;76.46;97076.63;5046533;28;20021;-61
2022/01/12 06:39:26;;;;;;;6.18;5.68;;;;;;;-2.26;77.11;97082.56;5045623;28;20044;-61
2022/01/12 06:41:53;;;;;;;6.82;6.22;;;;;;;-2.21;76.47;97088.50;5045048;28;20021;-61
2022/01/12 06:44:20;;;;;;;7.13;6.43;;;;;;;-2.35;76.76;97091.31;5046665;28;20227;-61
2022/01/12 06:46:51;;;;;;;6.78;6.15;;;;;;;-2.36;77.33;97092.19;5040704;28;20033;-60
2022/01/12 06:49:17;;;;;;;6.90;6.30;;;;;;;-2.41;76.71;97093.19;5043033;28;20048;-62
2022/01/12 06:51:44;;;;;;;6.75;6.05;;;;;;;-2.47;77.17;97094.13;5044754;28;20061;-61
2022/01/12 06:54:10;;;;;;;8.55;6.90;;;;;;;-2.42;77.52;97104.38;5042676;28;20095;-63
2022/01/12 06:56:36;;;;;;;7.00;6.40;;;;;;;-2.45;77.67;97102.69;5043656;28;20040;-61
2022/01/12 06:59:02;;;;;;;7.28;6.65;;;;;;;-2.41;77.91;97116.41;5040470;28;20021;-63
2022/01/12 07:01:28;;;;;;;7.97;7.25;;;;;;;-2.45;77.94;97115.59;5023865;28;20013;-61
2022/01/12 07:03:53;;;;;;;7.38;6.60;;;;;;;-2.45;77.63;97110.44;5046881;28;20017;-61
2022/01/12 07:06:19;;;;;;;6.70;6.10;;;;;;;-2.38;77.23;97117.16;5047879;28;20036;-63
2022/01/12 07:08:44;;;;;;;8.07;7.07;;;;;;;-2.37;77.75;97125.78;5046473;28;20029;-64
2022/01/12 07:11:10;;;;;;;7.63;6.93;;;;;;;-2.34;77.21;97144.59;5044525;28;20033;-62
2022/01/12 07:13:35;;;;;;;8.05;7.25;;;;;;;-2.33;77.73;97141.16;5047356;28;20027;-64
2022/01/12 07:16:01;;;;;;;7.40;6.70;;;;;;;-2.31;77.98;97146.28;5043975;28;20064;-63
2022/01/12 07:18:29;;;;;;;9.82;7.07;;;;;;;-2.34;77.96;97141.19;5049343;28;20037;-61
2022/01/12 07:20:58;;;;;;;8.13;7.40;;;;;;;-2.33;78.05;97150.63;5044720;28;20020;-61
2022/01/12 07:23:24;;;;;;;7.97;7.32;;;;;;;-2.37;79.48;97159.31;5048450;28;20029;-61
2022/01/12 07:25:50;;;;;;;7.85;7.15;;;;;;;-2.41;79.27;97165.41;5044248;28;20108;-61
2022/01/12 07:28:16;;;;;;;8.82;7.97;;;;;;;-2.33;79.05;97166.94;5039716;28;20021;-59
2022/01/12 07:30:41;;;;;;;9.15;8.30;;;;;;;-2.34;79.62;97167.81;5039617;28;20478;-51
2022/01/12 07:33:07;;;;;;;12.65;11.32;;;;;;;-2.36;80.55;97166.16;5050125;28;20108;-53
2022/01/12 07:35:32;;;;;;;9.27;8.13;;;;;;;-2.17;80.09;97179.59;5044865;28;20032;-52
2022/01/12 07:37:58;;;;;;;9.23;8.32;;;;;;;-2.13;79.50;97186.41;5043196;28;20025;-53
2022/01/12 07:40:23;;;;;;;13.77;8.80;;;;;;;-2.10;78.84;97199.28;5038338;28;20033;-52
2022/01/12 07:42:50;;;;;;;9.40;8.40;;;;;;;-2.20;78.63;97192.56;5047857;28;20096;-50
2022/01/12 07:45:17;;;;;;;11.27;9.43;;;;;;;-2.27;79.05;97201.28;5038231;28;20029;-52
2022/01/12 07:47:43;;;;;;;12.05;10.75;;;;;;;-2.30;79.65;97204.75;5042453;28;20647;-55
2022/01/12 07:50:09;;;;;;;13.90;12.00;;;;;;;-2.32;80.06;97203.94;5041255;28;20056;-53
2022/01/12 07:52:35;;;;;;;10.50;8.65;;;;;;;-2.31;79.65;97206.50;5044378;28;20637;-53
2022/01/12 07:55:00;;;;;;;12.00;8.23;;;;;;;-2.31;79.55;97211.66;5042082;28;20023;-54
2022/01/12 07:57:26;;;;;;;9.30;7.95;;;;;;;-2.29;79.32;97210.78;5038015;28;20066;-54
2022/01/12 07:59:51;;;;;;;10.98;9.07;;;;;;;-2.26;79.63;97208.97;5042078;28;20028;-53
2022/01/12 08:02:17;;;;;;;9.27;8.38;;;;;;;-2.17;79.19;97202.81;5040946;28;20055;-51
2022/01/12 08:04:42;;;;;;;8.90;8.10;;;;;;;-2.16;79.70;97199.34;5043210;28;20024;-52
2022/01/12 08:07:10;;;;;;;9.00;7.80;;;;;;;-2.12;79.17;97202.75;5039885;28;20040;-52
2022/01/12 08:09:39;;;;;;;9.88;8.88;;;;;;;-2.16;79.32;97205.38;5046472;28;20481;-51
2022/01/12 08:12:05;;;;;;;9.15;8.23;;;;;;;-2.18;79.34;97195.94;5031528;28;20495;-54
2022/01/12 08:14:31;;;;;;;10.32;8.95;;;;;;;-2.14;79.86;97199.34;5038380;28;20033;-51
2022/01/12 08:16:56;;;;;;;10.50;9.45;;;;;;;-2.10;79.91;97199.28;5049315;28;20048;-52
2022/01/12 08:19:23;;;;;;;11.93;10.57;;;;;;;-2.10;79.66;97195.81;5042430;28;20071;-54
2022/01/12 08:21:49;;;;;;;10.95;9.10;;;;;;;-2.08;79.05;97200.09;5037327;28;20021;-55
2022/01/12 08:24:14;;;;;;;11.30;10.18;;;;;;;-2.11;79.42;97197.53;5045769;28;20488;-54
2022/01/12 08:26:40;;;;;;;11.15;9.90;;;;;;;-2.08;79.86;97197.50;5043392;28;20033;-53
2022/01/12 08:29:09;;;;;;;9.65;8.75;;;;;;;-2.00;79.19;97199.94;5036011;28;20029;-51
2022/01/12 08:31:35;;;;;;;10.25;8.90;;;;;;;-1.98;79.03;97195.63;5036867;28;20033;-55
2022/01/12 08:34:00;;;;;;;9.27;8.32;;;;;;;-1.99;78.31;97199.09;5042527;28;20649;-53
2022/01/12 08:36:25;;;;;;;9.75;8.80;;;;;;;-2.02;78.61;97193.94;5044979;28;20044;-50
2022/01/12 08:38:51;;;;;;;9.10;8.10;;;;;;;-2.08;78.24;97189.78;5042806;28;20373;-53
2022/01/12 08:41:16;;;;;;;11.55;9.27;;;;;;;-2.06;77.85;97194.88;5041723;28;20400;-52
2022/01/12 08:43:41;;;;;;;10.48;9.40;;;;;;;-2.02;78.20;97193.94;5042847;28;20103;-52
2022/01/12 08:46:09;;;;;;;9.27;8.38;;;;;;;-2.03;77.88;97184.50;5041819;28;20033;-51
2022/01/12 08:48:34;;;;;;;10.23;8.80;;;;;;;-1.94;78.04;97191.22;5040609;28;20030;-53
2022/01/12 08:51:01;;;;;;;17.33;12.50;;;;;;;-1.83;77.61;97196.19;5044904;28;20025;-53
2022/01/12 08:53:26;;;;;;;15.85;11.15;;;;;;;-1.78;76.80;97194.38;5039773;28;20087;-53
2022/01/12 08:55:52;;;;;;;9.65;8.52;;;;;;;-1.79;76.77;97193.53;5036552;28;20029;-53
2022/01/12 08:58:17;;;;;;;9.15;8.25;;;;;;;-1.77;75.54;97202.09;5039622;28;20029;-52
2022/01/12 09:00:43;;;;;;;8.07;7.28;;;;;;;-1.79;75.41;97203.00;5043412;28;20029;-51
2022/01/12 09:03:08;;;;;;;13.88;9.00;;;;;;;-1.74;75.36;97217.53;5044546;28;20050;-51
2022/01/12 09:05:34;;;;;;;9.90;7.85;;;;;;;-1.76;75.45;97218.47;5041463;28;20103;-53
2022/01/12 09:07:59;;;;;;;9.25;8.35;;;;;;;-1.77;75.47;97216.72;5037638;28;20044;-52
2022/01/12 09:10:25;;;;;;;11.95;9.88;;;;;;;-1.71;75.75;97226.97;5041291;28;20041;-54
2022/01/12 09:12:50;;;;;;;17.70;14.13;;;;;;;-1.61;78.29;97228.47;5040257;28;20540;-51
2022/01/12 09:15:16;;;;;;;18.98;16.17;;;;;;;-1.66;80.45;97237.19;5039239;28;20032;-50
2022/01/12 09:17:43;;;;;;;21.20;16.70;;;;;;;-1.77;82.32;97239.97;5037878;28;20033;-52
2022/01/12 09:20:09;;;;;;;25.10;17.17;;;;;;;-1.96;83.43;97240.31;5044159;28;20021;-54
2022/01/12 09:22:37;;;;;;;23.70;18.42;;;;;;;-1.93;83.85;97236.81;5041179;28;20401;-53
2022/01/12 09:25:04;;;;;;;25.30;17.40;;;;;;;-1.88;84.09;97250.50;5038346;28;20557;-53
2022/01/12 09:27:30;;;;;;;21.17;16.30;;;;;;;-1.80;83.38;97253.81;5041814;28;20493;-53
2022/01/12 09:29:56;;;;;;;22.42;17.15;;;;;;;-2.04;83.70;97249.91;5037795;28;20451;-54
2022/01/12 09:32:21;;;;;;;20.15;15.93;;;;;;;-2.20;85.21;97264.81;5040199;28;20029;-55
2022/01/12 09:34:46;;;;;;;23.48;17.38;;;;;;;-2.30;85.01;97269.25;5040560;28;20087;-52
2022/01/12 09:37:12;;;;;;;21.55;17.35;;;;;;;-2.21;84.84;97276.00;5043058;28;20041;-54
2022/01/12 09:39:37;;;;;;;21.60;17.73;;;;;;;-2.13;84.96;97279.31;5036781;28;20034;-53
2022/01/12 09:42:04;;;;;;;23.00;18.48;;;;;;;-2.07;84.23;97286.09;5042774;28;20026;-51
2022/01/12 09:44:35;;;;;;;19.38;16.38;;;;;;;-1.96;84.67;97284.22;5045109;28;20060;-54
2022/01/12 09:47:02;;;;;;;23.75;16.67;;;;;;;-2.11;84.45;97287.88;5033679;28;20033;-53
2022/01/12 09:49:28;;;;;;;24.83;19.27;;;;;;;-2.06;84.67;97291.25;5040679;28;20041;-55
2022/01/12 09:51:55;;;;;;;25.13;18.75;;;;;;;-1.99;84.26;97289.44;5041318;28;20021;-51
2022/01/12 09:54:20;;;;;;;22.77;17.92;;;;;;;-1.98;83.25;97287.69;5039235;28;20029;-53
2022/01/12 09:56:47;;;;;;;28.02;19.58;;;;;;;-2.02;83.60;97289.44;5041509;28;20033;-52
2022/01/12 09:59:12;;;;;;;27.80;21.58;;;;;;;-1.94;83.32;97291.91;5041595;28;20040;-52
2022/01/12 10:01:43;;;;;;;28.38;19.58;;;;;;;-1.90;82.74;97291.84;5042327;28;20021;-54
2022/01/12 10:04:14;;;;;;;21.65;15.65;;;;;;;-1.80;82.63;97291.69;5044205;28;20468;-54
2022/01/12 10:06:43;;;;;;;22.38;15.13;;;;;;;-2.06;82.96;97293.84;5041386;28;20358;-53
2022/01/12 10:09:09;;;;;;;19.92;15.43;;;;;;;-1.93;83.49;97293.63;5039769;28;20552;-51
2022/01/12 10:11:51;;;;;;;18.48;15.95;;;;;;;-1.96;82.60;97288.50;5047360;28;20026;-54
2022/01/12 10:14:17;;;;;;;23.08;16.80;;;;;;;-1.82;83.32;97301.19;5040255;28;20028;-53
2022/01/12 10:17:12;;;;;;;20.95;15.57;;;;;;;-1.65;82.46;97308.66;5039133;28;20065;-54
2022/01/12 10:19:38;;;;;;;18.02;15.18;;;;;;;-1.54;81.59;97293.81;5025419;28;20049;-54
2022/01/12 10:22:07;;;;;;;21.38;15.00;;;;;;;-1.62;81.66;97295.69;5041899;28;20029;-52
2022/01/12 10:24:37;;;;;;;18.15;14.55;;;;;;;-1.55;81.51;97298.97;5040926;28;20025;-52
2022/01/12 10:27:17;;;;;;;15.93;14.20;;;;;;;-1.61;82.43;97292.22;5046724;28;20021;-53
2022/01/12 10:29:44;;;;;;;18.27;14.30;;;;;;;-1.46;81.66;97294.50;5045554;28;20078;-51
2022/01/12 10:32:10;;;;;;;17.08;15.23;;;;;;;-1.43;82.10;97297.94;5029194;28;20405;-50
2022/01/12 10:34:42;;;;;;;21.55;16.02;;;;;;;-1.39;81.98;97286.66;5040467;28;20045;-52
2022/01/12 10:37:16;;;;;;;20.08;15.73;;;;;;;-1.39;81.77;97290.06;5044765;28;20021;-52
2022/01/12 10:39:48;;;;;;;18.90;14.73;;;;;;;-1.29;81.08;97290.75;5046449;28;20479;-53
2022/01/12 10:42:16;;;;;;;18.05;15.48;;;;;;;-1.25;81.83;97286.38;5043257;28;20053;-54
2022/01/12 10:44:45;;;;;;;18.40;13.73;;;;;;;-1.25;81.62;97282.06;5039356;28;20053;-53
2022/01/12 10:47:22;;;;;;;14.50;12.52;;;;;;;-1.08;80.73;97267.94;5041702;28;20037;-50
2022/01/12 10:49:53;;;;;;;16.75;13.13;;;;;;;-1.01;80.04;97260.03;5049147;28;20021;-53
2022/01/12 10:52:19;;;;;;;21.90;14.02;;;;;;;-1.00;80.43;97255.69;5048254;28;20116;-52
2022/01/12 10:54:51;;;;;;;16.02;13.27;;;;;;;-0.93;80.57;97257.28;5048464;28;20056;-54
2022/01/12 10:57:23;;;;;;;19.60;12.63;;;;;;;-0.90;81.19;97254.63;5041138;28;20032;-55
2022/01/12 11:00:18;;;;;;;18.10;15.30;;;;;;;-0.71;80.75;97251.66;5045261;28;20128;-54
2022/01/12 11:02:46;;;;;;;18.77;14.48;;;;;;;-0.70;79.50;97253.34;5045737;28;20033;-52
2022/01/12 11:05:12;;;;;;;17.05;13.45;;;;;;;-0.69;79.40;97244.72;5044065;28;20033;-55
2022/01/12 11:07:37;;;;;;;19.98;13.77;;;;;;;-0.53;78.78;97236.59;5043658;28;20395;-54
2022/01/12 11:10:06;;;;;;;21.42;15.98;;;;;;;-0.53;79.21;97234.84;5046315;28;20055;-52
2022/01/12 11:12:35;;;;;;;21.95;16.50;;;;;;;-0.56;79.19;97234.94;5044174;28;20028;-53
2022/01/12 11:15:00;;;;;;;18.83;15.80;;;;;;;-0.64;79.53;97240.28;5044911;28;20029;-55
2022/01/12 11:17:26;;;;;;;19.83;16.23;;;;;;;-0.50;79.38;97239.13;5046955;28;20053;-52
2022/01/12 11:20:03;;;;;;;18.80;15.88;;;;;;;-0.41;79.07;97236.31;5039644;28;20080;-53
2022/01/12 11:22:44;;;;;;;21.17;15.75;;;;;;;-0.29;78.51;97232.56;5021639;28;20041;-54
2022/01/12 11:25:22;;;;;;;12.68;11.38;;;;;;;-0.10;75.08;97237.31;5043817;28;20105;-50
2022/01/12 11:27:51;;;;;;;14.68;13.20;;;;;;;-0.10;74.92;97238.16;5044666;28;20065;-54
2022/01/12 11:30:22;;;;;;;12.45;11.25;;;;;;;-0.12;74.13;97239.91;5038239;28;20420;-51
2022/01/12 11:32:59;;;;;;;14.15;12.65;;;;;;;-0.13;73.41;97233.03;5044331;28;20510;-53
2022/01/12 11:35:27;;;;;;;13.43;12.07;;;;;;;-0.07;74.56;97238.09;5047564;28;20147;-52
2022/01/12 11:37:57;;;;;;;11.93;10.80;;;;;;;0.01;72.97;97239.63;5043060;28;20384;-53
2022/01/12 11:40:35;;;;;;;10.55;9.52;;;;;;;-0.08;71.06;97228.63;5043098;28;20116;-54
2022/01/12 11:43:02;;;;;;;11.57;8.93;;;;;;;0.03;71.67;97228.34;5043809;28;20108;-53
2022/01/12 11:45:28;;;;;;;9.77;8.13;;;;;;;0.12;70.86;97227.25;5039948;28;20390;-54
2022/01/12 11:47:53;;;;;;;8.75;7.82;;;;;;;0.05;70.11;97228.28;5043571;28;20044;-53
2022/01/12 11:50:18;;;;;;;15.82;10.60;;;;;;;0.17;71.08;97234.91;5046538;28;20029;-53
2022/01/12 11:52:44;;;;;;;20.08;16.08;;;;;;;0.15;73.20;97227.19;5043727;28;20028;-53
2022/01/12 11:55:13;;;;;;;21.73;15.38;;;;;;;0.28;74.03;97232.88;5047097;28;20025;-53
2022/01/12 11:57:42;;;;;;;16.80;13.55;;;;;;;0.39;74.07;97230.00;5038403;28;20029;-53
2022/01/12 12:00:19;;;;;;;12.88;11.07;;;;;;;0.26;73.09;97237.25;5039486;28;20140;-54
2022/01/12 12:02:47;;;;;;;16.90;14.73;;;;;;;0.35;73.22;97236.19;5041766;28;20041;-53
2022/01/12 12:05:33;;;;;;;26.77;15.93;;;;;;;0.32;73.59;97233.63;5044167;28;20057;-54
2022/01/12 12:08:04;;;;;;;12.80;11.43;;;;;;;0.22;73.37;97230.44;5042353;28;20025;-53
2022/01/12 12:10:38;;;;;;;12.73;10.95;;;;;;;0.27;72.09;97226.84;5036677;28;20377;-54
2022/01/12 12:13:05;;;;;;;12.10;10.55;;;;;;;0.42;70.83;97229.94;5040613;28;20026;-54
2022/01/12 12:15:31;;;;;;;12.35;10.82;;;;;;;0.40;70.57;97234.31;5041818;28;20455;-57
2022/01/12 12:18:00;;;;;;;12.82;10.65;;;;;;;0.22;72.47;97233.88;5039612;28;20037;-53
2022/01/12 12:20:26;;;;;;;12.68;10.05;;;;;;;0.14;72.86;97230.66;5043189;28;20025;-55
2022/01/12 12:22:52;;;;;;;10.68;9.57;;;;;;;0.13;72.35;97226.38;5047808;28;20107;-54
2022/01/12 12:25:20;;;;;;;11.55;9.93;;;;;;;0.28;71.76;97227.72;5040265;28;20024;-54
2022/01/12 12:27:50;;;;;;;13.88;10.13;;;;;;;0.51;71.27;97229.66;5045511;28;20069;-55
2022/01/12 12:30:18;;;;;;;14.27;11.93;;;;;;;0.55;70.32;97220.06;5039169;28;20035;-55
2022/01/12 12:32:43;;;;;;;18.83;13.00;;;;;;;0.60;70.42;97222.53;5042392;28;20039;-55
2022/01/12 12:35:13;;;;;;;14.65;10.65;;;;;;;0.57;69.48;97220.88;5045775;28;20462;-53
2022/01/12 12:37:40;;;;;;;18.15;13.63;;;;;;;0.52;69.68;97222.75;5048160;28;20064;-53
2022/01/12 12:40:17;;;;;;;12.73;9.65;;;;;;;0.55;68.42;97213.16;5042258;28;20088;-54
2022/01/12 12:42:44;;;;;;;11.75;9.07;;;;;;;0.47;69.08;97206.47;5039951;28;20412;-55
2022/01/12 12:45:10;;;;;;;9.98;8.98;;;;;;;0.49;67.76;97205.53;5044136;28;20124;-54
2022/01/12 12:47:35;;;;;;;13.10;9.90;;;;;;;0.49;68.75;97209.88;5035729;28;20433;-54
2022/01/12 12:50:08;;;;;;;11.95;9.15;;;;;;;0.55;67.91;97202.78;5043324;28;20035;-55
2022/01/12 12:52:37;;;;;;;11.05;8.48;;;;;;;0.63;67.43;97199.13;5040906;28;20013;-55
2022/01/12 12:55:12;;;;;;;8.93;7.97;;;;;;;0.56;68.01;97191.53;5041103;28;20049;-55
2022/01/12 12:57:50;;;;;;;9.18;8.27;;;;;;;0.49;68.44;97202.94;5043050;28;20512;-53
2022/01/12 13:00:20;;;;;;;8.82;8.00;;;;;;;0.54;69.60;97200.22;5045388;28;20079;-55